createdAt,value
2018-09-03T00:00:42.660Z,16.20
2018-09-03T00:03:12.080Z,16.30
2018-09-03T00:05:41.374Z,16.30
2018-09-03T00:08:10.743Z,16.30
2018-09-03T00:10:39.844Z,16.30
2018-09-03T00:13:08.930Z,16.30
2018-09-03T00:15:38.661Z,16.30
2018-09-03T00:18:08.336Z,16.30
2018-09-03T00:20:37.377Z,16.30
2018-09-03T00:23:06.448Z,16.30
2018-09-03T00:25:35.614Z,16.20
2018-09-03T00:28:04.629Z,16.20
2018-09-03T00:30:34.017Z,16.10
2018-09-03T00:33:08.500Z,16.10
2018-09-03T00:35:43.036Z,16.00
2018-09-03T00:38:17.582Z,16.00
2018-09-03T00:40:53.213Z,15.90
2018-09-03T00:43:27.769Z,15.80
2018-09-03T00:46:02.159Z,15.80
2018-09-03T00:48:31.256Z,15.70
2018-09-03T00:51:00.335Z,15.60
2018-09-03T00:53:29.491Z,15.60
2018-09-03T00:55:58.552Z,15.50
2018-09-03T00:58:27.770Z,15.50
2018-09-03T01:00:57.999Z,15.50
2018-09-03T01:03:28.262Z,15.50
2018-09-03T01:05:58.691Z,15.50
2018-09-03T01:08:29.777Z,15.60
2018-09-03T01:11:00.235Z,15.60
2018-09-03T01:13:30.219Z,15.70
2018-09-03T01:15:59.924Z,15.70
2018-09-03T01:18:30.182Z,15.80
2018-09-03T01:20:59.680Z,15.80
2018-09-03T01:23:29.365Z,15.80
2018-09-03T01:25:58.890Z,15.80
2018-09-03T01:28:28.219Z,15.80
2018-09-03T01:30:57.634Z,15.90
2018-09-03T01:33:27.650Z,15.80
2018-09-03T01:35:57.308Z,15.80
2018-09-03T01:38:27.040Z,15.80
2018-09-03T01:40:56.941Z,15.80
2018-09-03T01:43:26.748Z,15.90
2018-09-03T01:45:56.942Z,16.00
2018-09-03T01:48:26.217Z,15.90
2018-09-03T01:50:55.415Z,15.90
2018-09-03T01:53:25.613Z,16.00
2018-09-03T01:55:55.056Z,16.00
2018-09-03T01:58:24.493Z,15.90
2018-09-03T02:00:53.850Z,16.00
2018-09-03T02:03:23.247Z,15.90
2018-09-03T02:05:52.698Z,16.00
2018-09-03T02:08:22.068Z,16.00
2018-09-03T02:10:51.693Z,15.90
2018-09-03T02:13:21.720Z,15.90
2018-09-03T02:15:51.021Z,15.90
2018-09-03T02:18:20.167Z,15.80
2018-09-03T02:20:49.284Z,15.80
2018-09-03T02:23:18.409Z,15.80
2018-09-03T02:25:47.478Z,15.70
2018-09-03T02:28:17.313Z,15.70
2018-09-03T02:30:46.514Z,15.60
2018-09-03T02:33:15.693Z,15.60
2018-09-03T02:35:45.082Z,15.70
2018-09-03T02:38:15.212Z,15.80
2018-09-03T02:40:44.357Z,15.80
2018-09-03T02:43:13.600Z,15.90
2018-09-03T02:45:42.953Z,16.00
2018-09-03T02:48:12.287Z,16.00
2018-09-03T02:50:41.289Z,15.90
2018-09-03T02:53:10.448Z,15.90
2018-09-03T02:55:39.773Z,15.90
2018-09-03T02:58:08.970Z,15.80
2018-09-03T03:00:38.305Z,15.70
2018-09-03T03:03:07.733Z,15.70
2018-09-03T03:05:36.979Z,15.60
2018-09-03T03:08:06.447Z,15.60
2018-09-03T03:10:35.580Z,15.60
2018-09-03T03:13:04.805Z,15.60
2018-09-03T03:15:33.881Z,15.50
2018-09-03T03:18:03.844Z,15.40
2018-09-03T03:20:33.119Z,15.40
2018-09-03T03:23:02.413Z,15.50
2018-09-03T03:25:32.285Z,15.50
2018-09-03T03:28:02.256Z,15.50
2018-09-03T03:30:31.462Z,15.60
2018-09-03T03:33:01.402Z,15.60
2018-09-03T03:35:30.518Z,15.60
2018-09-03T03:38:00.433Z,15.50
2018-09-03T03:40:29.599Z,15.50
2018-09-03T03:42:58.828Z,15.50
2018-09-03T03:45:28.098Z,15.40
2018-09-03T03:47:57.276Z,15.40
2018-09-03T03:50:26.602Z,15.40
2018-09-03T03:52:55.769Z,15.40
2018-09-03T03:55:25.068Z,15.30
2018-09-03T03:57:54.279Z,15.30
2018-09-03T04:00:23.364Z,15.20
2018-09-03T04:02:52.591Z,15.20
2018-09-03T04:05:21.930Z,15.10
2018-09-03T04:07:51.176Z,15.10
2018-09-03T04:10:20.272Z,15.10
2018-09-03T04:12:57.946Z,15.00
2018-09-03T04:15:27.226Z,15.00
2018-09-03T04:17:56.580Z,15.10
2018-09-03T04:20:25.852Z,15.10
2018-09-03T04:22:55.081Z,15.10
2018-09-03T04:25:24.633Z,15.10
2018-09-03T04:27:54.659Z,15.10
2018-09-03T04:30:24.089Z,15.10
2018-09-03T04:32:54.037Z,15.10
2018-09-03T04:35:23.345Z,15.10
2018-09-03T04:37:53.355Z,15.10
2018-09-03T04:40:22.666Z,15.10
2018-09-03T04:42:51.864Z,15.20
2018-09-03T04:45:21.193Z,15.20
2018-09-03T04:47:50.495Z,15.30
2018-09-03T04:50:19.774Z,15.30
2018-09-03T04:52:48.817Z,15.30
2018-09-03T04:55:18.069Z,15.20
2018-09-03T04:57:47.176Z,15.10
2018-09-03T05:00:16.327Z,15.10
2018-09-03T05:02:45.672Z,15.10
2018-09-03T05:05:15.037Z,15.00
2018-09-03T05:07:44.288Z,15.00
2018-09-03T05:10:13.544Z,15.00
2018-09-03T05:12:42.906Z,15.00
2018-09-03T05:15:12.101Z,15.10
2018-09-03T05:17:41.352Z,15.00
2018-09-03T05:20:10.690Z,15.00
2018-09-03T05:22:40.129Z,15.00
2018-09-03T05:25:09.319Z,14.90
2018-09-03T05:27:38.619Z,14.90
2018-09-03T05:30:08.363Z,15.00
2018-09-03T05:32:38.082Z,14.90
2018-09-03T05:35:07.467Z,15.00
2018-09-03T05:37:36.689Z,15.10
2018-09-03T05:40:06.056Z,15.10
2018-09-03T05:42:35.455Z,15.10
2018-09-03T05:45:05.547Z,15.10
2018-09-03T05:47:35.826Z,15.20
2018-09-03T05:50:05.367Z,15.30
2018-09-03T05:52:34.943Z,15.30
2018-09-03T05:55:04.518Z,15.30
2018-09-03T05:57:34.226Z,15.40
2018-09-03T06:00:03.715Z,15.40
2018-09-03T06:02:33.034Z,15.50
2018-09-03T06:05:02.929Z,15.50
2018-09-03T06:07:32.178Z,15.60
2018-09-03T06:10:01.344Z,15.60
2018-09-03T06:12:30.569Z,15.60
2018-09-03T06:14:59.844Z,15.70
2018-09-03T06:17:29.078Z,15.60
2018-09-03T06:19:58.330Z,15.70
2018-09-03T06:22:27.557Z,15.70
2018-09-03T06:24:56.749Z,15.70
2018-09-03T06:27:25.861Z,15.80
2018-09-03T06:29:55.127Z,15.80
2018-09-03T06:32:24.249Z,15.80
2018-09-03T06:34:53.344Z,15.90
2018-09-03T06:37:22.584Z,16.00
2018-09-03T06:39:52.763Z,16.10
2018-09-03T06:42:22.029Z,16.20
2018-09-03T06:44:51.331Z,16.30
2018-09-03T06:47:20.487Z,16.40
2018-09-03T06:49:49.591Z,16.50
2018-09-03T06:52:18.749Z,16.60
2018-09-03T06:54:47.910Z,16.60
2018-09-03T06:57:17.124Z,16.70
2018-09-03T06:59:46.423Z,16.70
2018-09-03T07:02:15.644Z,16.80
2018-09-03T07:04:44.938Z,16.90
2018-09-03T07:07:14.322Z,17.00
2018-09-03T07:09:43.631Z,17.10
2018-09-03T07:12:13.171Z,17.20
2018-09-03T07:14:42.428Z,17.30
2018-09-03T07:17:11.638Z,17.30
2018-09-03T07:19:40.878Z,17.40
2018-09-03T07:22:10.089Z,17.40
2018-09-03T07:24:39.440Z,17.50
2018-09-03T07:27:08.727Z,17.60
2018-09-03T07:29:38.075Z,17.50
2018-09-03T07:32:07.464Z,17.50
2018-09-03T07:34:36.809Z,17.50
2018-09-03T07:37:06.173Z,17.50
2018-09-03T07:39:35.491Z,17.50
2018-09-03T07:42:04.840Z,17.60
2018-09-03T07:44:34.122Z,17.50
2018-09-03T07:47:03.649Z,17.40
2018-09-03T07:49:32.722Z,17.50
2018-09-03T07:52:01.836Z,17.70
2018-09-03T07:54:31.108Z,18.00
2018-09-03T07:57:00.475Z,18.30
2018-09-03T07:59:29.752Z,18.70
2018-09-03T08:02:00.039Z,19.30
2018-09-03T08:04:29.429Z,20.10
2018-09-03T08:06:58.776Z,20.70
2018-09-03T08:09:28.071Z,21.10
2018-09-03T08:11:57.245Z,21.10
2018-09-03T08:14:26.680Z,21.00
2018-09-03T08:16:55.904Z,20.80
2018-09-03T08:19:25.097Z,20.50
2018-09-03T08:21:54.447Z,20.10
2018-09-03T08:24:23.935Z,19.70
2018-09-03T08:26:53.274Z,19.60
2018-09-03T08:29:22.736Z,19.60
2018-09-03T08:31:52.990Z,19.60
2018-09-03T08:34:22.361Z,19.40
2018-09-03T08:36:51.693Z,19.20
2018-09-03T08:39:21.096Z,19.30
2018-09-03T08:41:50.289Z,19.50
2018-09-03T08:44:19.884Z,19.60
2018-09-03T08:46:49.252Z,19.70
2018-09-03T08:49:18.750Z,19.80
2018-09-03T08:51:48.144Z,19.80
2018-09-03T08:54:17.358Z,19.90
2018-09-03T08:56:46.677Z,20.00
2018-09-03T08:59:16.042Z,20.00
2018-09-03T09:01:45.286Z,19.80
2018-09-03T09:04:14.527Z,20.40
2018-09-03T09:06:44.627Z,20.20
2018-09-03T09:09:14.220Z,20.40
2018-09-03T09:11:43.530Z,20.70
2018-09-03T09:14:12.767Z,21.00
2018-09-03T09:16:42.105Z,21.50
2018-09-03T09:19:11.520Z,22.10
2018-09-03T09:21:40.898Z,22.70
2018-09-03T09:24:10.258Z,23.00
2018-09-03T09:26:39.572Z,23.00
2018-09-03T09:29:08.721Z,23.10
2018-09-03T09:31:37.987Z,22.40
2018-09-03T09:34:07.355Z,22.00
2018-09-03T09:36:36.669Z,21.70
2018-09-03T09:39:08.244Z,21.60
2018-09-03T09:41:37.614Z,21.70
2018-09-03T09:44:06.988Z,21.50
2018-09-03T09:46:36.382Z,21.40
2018-09-03T09:49:05.736Z,21.30
2018-09-03T09:51:35.562Z,21.20
2018-09-03T09:54:04.957Z,21.10
2018-09-03T09:56:34.225Z,21.00
2018-09-03T09:59:03.720Z,21.00
2018-09-03T10:01:34.867Z,21.00
2018-09-03T10:04:04.410Z,21.20
2018-09-03T10:06:33.723Z,21.20
2018-09-03T10:09:03.248Z,21.10
2018-09-03T10:11:32.515Z,21.10
2018-09-03T10:14:01.807Z,21.20
2018-09-03T10:16:31.183Z,21.50
2018-09-03T10:19:00.489Z,21.80
2018-09-03T10:21:29.893Z,22.10
2018-09-03T10:23:59.504Z,22.30
2018-09-03T10:26:28.719Z,22.30
2018-09-03T10:28:58.158Z,22.30
2018-09-03T10:31:27.422Z,21.90
2018-09-03T10:33:56.989Z,21.50
2018-09-03T10:36:27.779Z,21.10
2018-09-03T10:38:57.140Z,21.00
2018-09-03T10:41:26.513Z,20.70
2018-09-03T10:43:55.852Z,20.60
2018-09-03T10:46:25.267Z,20.60
2018-09-03T10:48:54.469Z,20.50
2018-09-03T10:51:23.840Z,20.50
2018-09-03T10:53:53.189Z,20.80
2018-09-03T10:56:22.473Z,21.00
2018-09-03T10:58:51.925Z,21.10
2018-09-03T11:01:21.112Z,21.20
2018-09-03T11:03:50.334Z,21.10
2018-09-03T11:06:19.513Z,21.10
2018-09-03T11:08:48.825Z,20.90
2018-09-03T11:11:18.063Z,20.80
2018-09-03T11:13:47.234Z,20.80
2018-09-03T11:16:16.524Z,21.20
2018-09-03T11:18:45.703Z,21.60
2018-09-03T11:21:15.012Z,21.90
2018-09-03T11:23:44.120Z,21.90
2018-09-03T11:26:13.312Z,22.00
2018-09-03T11:28:42.821Z,22.30
2018-09-03T11:31:12.027Z,22.20
2018-09-03T11:33:41.200Z,21.90
2018-09-03T11:36:10.467Z,21.70
2018-09-03T11:38:39.773Z,21.50
2018-09-03T11:41:09.130Z,21.50
2018-09-03T11:43:38.252Z,21.60
2018-09-03T11:46:07.435Z,21.70
2018-09-03T11:48:36.542Z,21.60
2018-09-03T11:51:05.767Z,21.50
2018-09-03T11:53:35.877Z,21.20
2018-09-03T11:56:05.149Z,21.10
2018-09-03T11:58:34.420Z,21.10
2018-09-03T12:01:03.701Z,21.20
2018-09-03T12:03:33.895Z,21.00
2018-09-03T12:06:03.234Z,21.00
2018-09-03T12:08:32.642Z,20.70
2018-09-03T12:11:01.897Z,20.60
2018-09-03T12:13:31.303Z,20.60
2018-09-03T12:16:14.729Z,20.60
2018-09-03T12:18:44.977Z,20.60
2018-09-03T12:21:14.961Z,20.70
2018-09-03T12:23:44.559Z,20.50
2018-09-03T12:26:13.729Z,20.40
2018-09-03T12:28:43.154Z,20.40
2018-09-03T12:31:12.401Z,20.40
2018-09-03T12:33:41.629Z,20.20
2018-09-03T12:36:11.043Z,20.10
2018-09-03T12:38:40.192Z,20.00
2018-09-03T12:41:09.252Z,19.90
2018-09-03T12:43:39.141Z,19.90
2018-09-03T12:46:09.112Z,20.00
2018-09-03T12:48:38.227Z,20.00
2018-09-03T12:51:07.544Z,20.10
2018-09-03T12:53:36.804Z,20.00
2018-09-03T12:56:05.820Z,19.80
2018-09-03T12:58:35.046Z,19.80
2018-09-03T13:01:04.268Z,19.70
2018-09-03T13:03:33.505Z,19.60
2018-09-03T13:06:02.800Z,19.50
2018-09-03T13:08:32.252Z,19.40
2018-09-03T13:11:03.292Z,19.20
2018-09-03T13:13:32.368Z,19.20
2018-09-03T13:16:02.374Z,19.20
2018-09-03T13:18:32.441Z,19.20
2018-09-03T13:21:02.422Z,19.10
2018-09-03T13:23:31.824Z,19.10
2018-09-03T13:26:01.166Z,19.10
2018-09-03T13:28:31.117Z,18.90
2018-09-03T13:31:00.407Z,18.70
2018-09-03T13:33:29.671Z,18.40
2018-09-03T13:35:58.902Z,18.20
2018-09-03T13:38:29.188Z,18.00
2018-09-03T13:40:58.514Z,17.90
2018-09-03T13:43:28.295Z,17.80
2018-09-03T13:45:59.307Z,17.70
2018-09-03T13:48:29.420Z,17.60
2018-09-03T13:50:59.325Z,17.50
2018-09-03T13:53:29.768Z,17.50
2018-09-03T13:55:58.983Z,17.60
2018-09-03T13:58:28.173Z,17.70
2018-09-03T14:00:57.476Z,17.70
2018-09-03T14:03:26.809Z,17.80
2018-09-03T14:06:02.832Z,17.70
2018-09-03T14:08:32.593Z,17.80
2018-09-03T14:11:02.275Z,17.90
2018-09-03T14:13:31.541Z,17.90
2018-09-03T14:16:01.017Z,17.90
2018-09-03T14:18:31.584Z,18.10
2018-09-03T14:21:01.031Z,18.20
2018-09-03T14:23:30.317Z,18.30
2018-09-03T14:25:59.539Z,18.50
2018-09-03T14:28:28.953Z,18.60
2018-09-03T14:30:58.444Z,18.70
2018-09-03T14:33:27.623Z,18.80
2018-09-03T14:35:56.753Z,18.80
2018-09-03T14:38:26.152Z,18.80
2018-09-03T14:40:55.421Z,18.90
2018-09-03T14:43:24.824Z,19.00
2018-09-03T14:45:54.128Z,19.20
2018-09-03T14:48:23.321Z,19.20
2018-09-03T14:50:52.702Z,19.20
2018-09-03T14:53:22.021Z,19.20
2018-09-03T14:55:51.420Z,19.00
2018-09-03T14:58:20.822Z,18.80
2018-09-03T15:00:50.365Z,18.60
2018-09-03T15:03:19.464Z,18.40
2018-09-03T15:05:48.860Z,18.50
2018-09-03T15:08:18.964Z,18.60
2018-09-03T15:10:48.220Z,18.70
2018-09-03T15:13:17.384Z,18.90
2018-09-03T15:15:46.635Z,18.90
2018-09-03T15:18:16.085Z,18.90
2018-09-03T15:20:45.403Z,19.00
2018-09-03T15:23:14.652Z,19.10
2018-09-03T15:25:43.994Z,19.10
2018-09-03T15:28:13.339Z,19.10
2018-09-03T15:30:42.558Z,19.10
2018-09-03T15:40:10.356Z,19.20
2018-09-03T15:42:39.560Z,18.90
2018-09-03T15:45:08.727Z,18.80
2018-09-03T15:47:37.852Z,18.60
2018-09-03T15:50:07.217Z,18.60
2018-09-03T15:52:36.453Z,18.40
2018-09-03T15:55:05.796Z,18.30
2018-09-03T15:57:35.226Z,18.20
2018-09-03T16:00:05.489Z,18.10
2018-09-03T16:02:34.795Z,18.10
2018-09-03T16:05:04.084Z,18.10
2018-09-03T16:07:33.647Z,18.10
2018-09-03T16:10:02.990Z,18.10
2018-09-03T16:12:32.243Z,18.10
2018-09-03T16:15:01.558Z,18.10
2018-09-03T16:17:30.837Z,18.20
2018-09-03T16:20:00.226Z,18.30
2018-09-03T16:22:29.596Z,18.40
2018-09-03T16:24:59.014Z,18.50
2018-09-03T16:27:28.485Z,18.60
2018-09-03T16:29:57.727Z,18.70
2018-09-03T16:32:27.221Z,18.80
2018-09-03T16:34:56.568Z,18.80
2018-09-03T16:37:25.858Z,18.80
2018-09-03T16:39:55.148Z,18.80
2018-09-03T16:42:24.513Z,18.80
2018-09-03T16:44:54.007Z,18.80
2018-09-03T16:47:23.399Z,18.80
2018-09-03T16:49:52.748Z,18.90
2018-09-03T16:52:22.148Z,18.90
2018-09-03T16:54:51.397Z,18.90
2018-09-03T16:57:27.257Z,18.90
2018-09-03T16:59:56.583Z,18.90
2018-09-03T17:02:25.895Z,18.80
2018-09-03T17:04:55.875Z,18.80
2018-09-03T17:07:25.347Z,18.70
2018-09-03T17:09:54.685Z,18.70
2018-09-03T17:12:24.105Z,18.70
2018-09-03T17:14:53.993Z,18.70
2018-09-03T17:17:23.729Z,18.60
2018-09-03T17:19:52.982Z,18.60
2018-09-03T17:22:22.239Z,18.70
2018-09-03T17:24:51.444Z,18.70
2018-09-03T17:27:20.718Z,18.70
2018-09-03T17:29:50.072Z,18.70
2018-09-03T17:32:19.211Z,18.70
2018-09-03T17:34:49.176Z,18.70
2018-09-03T17:37:18.509Z,18.60
2018-09-03T17:39:48.883Z,18.60
2018-09-03T17:42:18.101Z,18.50
2018-09-03T17:44:47.217Z,18.40
2018-09-03T17:47:16.484Z,18.30
2018-09-03T17:49:45.992Z,18.30
2018-09-03T17:52:15.264Z,18.20
2018-09-03T17:54:44.463Z,18.20
2018-09-03T17:57:14.315Z,18.20
2018-09-03T18:06:41.776Z,18.10
2018-09-03T18:09:11.011Z,17.90
2018-09-03T18:11:40.928Z,17.90
2018-09-03T18:14:10.253Z,17.80
2018-09-03T18:16:39.525Z,17.80
2018-09-03T18:19:08.767Z,17.70
2018-09-03T18:21:38.075Z,17.70
2018-09-03T18:24:08.329Z,17.70
2018-09-03T18:26:37.638Z,17.70
2018-09-03T18:29:06.856Z,17.60
2018-09-03T18:31:36.189Z,17.70
2018-09-03T18:34:05.547Z,17.70
2018-09-03T18:36:34.798Z,17.70
2018-09-03T18:39:05.181Z,17.60
2018-09-03T18:41:35.144Z,17.60
2018-09-03T18:44:05.082Z,17.60
2018-09-03T18:46:34.570Z,17.60
2018-09-03T18:49:04.116Z,17.50
2018-09-03T18:51:34.047Z,17.60
2018-09-03T18:54:03.866Z,17.60
2018-09-03T18:56:33.428Z,17.60
2018-09-03T18:59:03.511Z,17.60
2018-09-03T19:01:33.733Z,17.60
2018-09-03T19:04:03.550Z,17.60
2018-09-03T19:06:33.443Z,17.60
2018-09-03T19:09:03.941Z,17.60
2018-09-03T19:11:33.680Z,17.50
2018-09-03T19:14:03.475Z,17.50
2018-09-03T19:16:34.469Z,17.50
2018-09-03T19:19:04.936Z,17.50
2018-09-03T19:21:34.990Z,17.50
2018-09-03T19:24:05.097Z,17.50
2018-09-03T19:26:34.895Z,17.50
2018-09-03T19:29:04.383Z,17.50
2018-09-03T19:31:35.035Z,17.40
2018-09-03T19:34:04.880Z,17.40
2018-09-03T19:36:34.774Z,17.40
2018-09-03T19:39:05.491Z,17.40
2018-09-03T19:41:35.145Z,17.40
2018-09-03T19:44:05.244Z,17.30
2018-09-03T19:46:34.506Z,17.30
2018-09-03T19:49:10.974Z,17.30
2018-09-03T19:51:40.879Z,17.20
2018-09-03T19:54:10.967Z,17.10
2018-09-03T19:56:40.228Z,17.00
2018-09-03T19:59:09.754Z,16.90
2018-09-03T20:01:39.801Z,16.80
2018-09-03T20:04:09.936Z,16.70
2018-09-03T20:06:40.792Z,16.60
2018-09-03T20:09:11.531Z,16.50
2018-09-03T20:11:41.733Z,16.40
2018-09-03T20:14:11.784Z,16.30
2018-09-03T20:16:41.896Z,16.30
2018-09-03T20:19:11.961Z,16.20
2018-09-03T20:21:41.331Z,16.20
2018-09-03T20:24:10.721Z,16.20
2018-09-03T20:26:40.244Z,16.20
2018-09-03T20:29:09.680Z,16.10
2018-09-03T20:31:39.599Z,16.20
2018-09-03T20:34:09.260Z,16.20
2018-09-03T20:36:39.394Z,16.10
2018-09-03T20:39:09.523Z,16.10
2018-09-03T20:41:39.187Z,16.00
2018-09-03T20:44:09.343Z,16.00
2018-09-03T20:46:38.856Z,16.00
2018-09-03T20:49:09.020Z,15.90
2018-09-03T20:51:38.475Z,16.00
2018-09-03T20:54:07.814Z,16.00
2018-09-03T20:56:37.135Z,16.10
2018-09-03T20:59:06.309Z,16.10
2018-09-03T21:01:35.690Z,16.20
2018-09-03T21:04:05.251Z,16.20
2018-09-03T21:06:34.632Z,16.10
2018-09-03T21:09:05.248Z,16.10
2018-09-03T21:11:34.639Z,15.90
2018-09-03T21:14:04.538Z,15.80
2018-09-03T21:16:33.860Z,15.70
2018-09-03T21:19:03.428Z,15.70
2018-09-03T21:21:32.640Z,15.60
2018-09-03T21:24:02.068Z,15.60
2018-09-03T21:26:31.317Z,15.60
2018-09-03T21:29:00.439Z,15.60
2018-09-03T21:31:29.548Z,15.60
2018-09-03T21:33:58.700Z,15.60
2018-09-03T21:36:27.940Z,15.60
2018-09-03T21:38:57.247Z,15.60
2018-09-03T21:41:26.447Z,15.60
2018-09-03T21:43:55.798Z,15.50
2018-09-03T21:46:25.315Z,15.50
2018-09-03T21:48:55.191Z,15.50
2018-09-03T21:51:24.551Z,15.40
2018-09-03T21:53:53.701Z,15.40
2018-09-03T21:56:22.824Z,15.40
2018-09-03T21:58:52.017Z,15.40
2018-09-03T22:01:21.336Z,15.30
2018-09-03T22:03:50.452Z,15.30
2018-09-03T22:06:19.640Z,15.30
2018-09-03T22:08:49.502Z,15.20
2018-09-03T22:11:18.712Z,15.20
2018-09-03T22:13:48.047Z,15.10
2018-09-03T22:16:17.363Z,15.10
2018-09-03T22:18:46.801Z,15.10
2018-09-03T22:21:16.007Z,15.10
2018-09-03T22:23:45.193Z,15.10
2018-09-03T22:26:14.355Z,15.10
2018-09-03T22:28:43.697Z,15.00
2018-09-03T22:31:13.022Z,15.00
2018-09-03T22:33:42.091Z,15.00
2018-09-03T22:36:11.789Z,15.10
2018-09-03T22:38:41.073Z,15.10
2018-09-03T22:41:10.256Z,15.10
2018-09-03T22:43:39.478Z,15.00
2018-09-03T22:46:08.744Z,15.00
2018-09-03T22:48:37.981Z,15.00
2018-09-03T22:51:07.063Z,15.00
2018-09-03T22:58:22.840Z,14.90
2018-09-03T23:00:52.393Z,14.90
2018-09-03T23:03:21.683Z,14.90
2018-09-03T23:05:51.007Z,14.90
2018-09-03T23:08:20.176Z,14.90
2018-09-03T23:10:49.606Z,14.80
2018-09-03T23:13:18.655Z,14.80
2018-09-03T23:15:53.766Z,14.80
2018-09-03T23:18:23.984Z,14.90
2018-09-03T23:20:53.341Z,14.90
2018-09-03T23:23:22.674Z,14.80
2018-09-03T23:25:51.739Z,14.80
2018-09-03T23:28:21.629Z,14.70
2018-09-03T23:30:50.859Z,14.60
2018-09-03T23:33:19.996Z,14.50
2018-09-03T23:35:49.133Z,14.50
2018-09-03T23:38:18.334Z,14.50
2018-09-03T23:40:47.526Z,14.60
2018-09-03T23:43:16.848Z,14.50
2018-09-03T23:45:46.710Z,14.60
2018-09-03T23:48:15.907Z,14.80
2018-09-03T23:50:45.152Z,14.90
2018-09-03T23:53:14.468Z,14.80
2018-09-03T23:55:44.059Z,14.70
2018-09-03T23:58:13.227Z,14.70
